| time (UTC) | temp C | wind direction | speed KPH | gust KPH | rain 1hr cm | rain 24hr cm | rain mn cm | humidity % | barometer mb |
| 20260504130310 | 23 | 244 | 4.8 | 4.8 | 0.00 | 0.00 | 0.00 | 87 | 1012.0 |
| 20260504130209 | 23 | 244 | 4.8 | 4.8 | 0.00 | 0.00 | 0.00 | 87 | 1012.0 |
| 20260504120308 | 25 | 244 | 4.8 | 4.8 | 0.00 | 0.00 | 0.00 | 87 | 1012.0 |
| 20260504120208 | 25 | 244 | 4.8 | 4.8 | 0.00 | 0.00 | 0.00 | 87 | 1012.0 |
| 20260504110307 | 21 | 256 | 1.6 | 4.8 | 0.00 | 0.00 | 0.00 | 88 | 1011.0 |
| 20260504110206 | 21 | 256 | 1.6 | 4.8 | 0.00 | 0.00 | 0.00 | 88 | 1011.0 |
| 20260504100305 | 22 | 256 | 3.2 | 4.8 | 0.00 | 0.00 | 0.00 | 88 | 1011.0 |
| 20260504100204 | 22 | 256 | 3.2 | 4.8 | 0.00 | 0.00 | 0.00 | 88 | 1011.0 |
| 20260504080302 | 22 | 262 | 1.6 | 1.6 | 0.00 | 0.00 | 0.00 | 89 | 1011.0 |
| 20260504080201 | 22 | 262 | 1.6 | 1.6 | 0.00 | 0.00 | 0.00 | 89 | 1011.0 |
| 20260504070300 | 23 | 262 | 3.2 | 3.2 | 0.00 | 0.00 | 0.00 | 89 | 1012.0 |
| 20260504070159 | 23 | 262 | 3.2 | 3.2 | 0.00 | 0.00 | 0.00 | 89 | 1012.0 |
| 20260504060158 | 22 | 267 | 4.8 | 6.4 | 0.00 | 0.00 | 0.00 | 90 | 1012.0 |
| 20260504050257 | 22 | 271 | 6.4 | 8.0 | 0.00 | 0.00 | 0.00 | 90 | 1013.0 |
| 20260504050156 | 22 | 271 | 6.4 | 8.0 | 0.00 | 0.00 | 0.00 | 90 | 1013.0 |
| 20260504044256 | 22 | 271 | 6.4 | 9.7 | 0.03 | 0.00 | 0.00 | 90 | 1013.0 |
| 20260504044156 | 22 | 271 | 6.4 | 9.7 | 0.03 | 0.00 | 0.00 | 90 | 1013.0 |
| 20260504042256 | 21 | 269 | 6.4 | 8.0 | 0.00 | 0.00 | 0.00 | 89 | 1013.0 |
| 20260504042156 | 21 | 269 | 6.4 | 8.0 | 0.00 | 0.00 | 0.00 | 89 | 1013.0 |
| 20260504040255 | 22 | 269 | 6.4 | 8.0 | 0.05 | 0.00 | 0.00 | 89 | 1013.0 |
| 20260504040155 | 22 | 269 | 6.4 | 8.0 | 0.05 | 0.00 | 0.00 | 89 | 1013.0 |
| 20260504034255 | 22 | 269 | 6.4 | 8.0 | 0.05 | 0.00 | 0.00 | 89 | 1013.0 |
| 20260504034154 | 22 | 269 | 6.4 | 8.0 | 0.05 | 0.00 | 0.00 | 89 | 1013.0 |
| 20260504032254 | 21 | 259 | 6.4 | 8.0 | 0.10 | 0.00 | 0.00 | 89 | 1013.0 |
| 20260504030254 | 22 | 259 | 6.4 | 8.0 | 0.13 | 0.00 | 0.00 | 89 | 1013.0 |
| 20260504030154 | 22 | 259 | 6.4 | 8.0 | 0.13 | 0.00 | 0.00 | 89 | 1013.0 |
| 20260504024254 | 22 | 259 | 6.4 | 8.0 | 0.13 | 0.00 | 0.00 | 89 | 1013.0 |
| 20260504024153 | 22 | 259 | 6.4 | 8.0 | 0.13 | 0.00 | 0.00 | 89 | 1013.0 |
| 20260504022253 | 21 | 257 | 4.8 | 8.0 | 0.15 | 0.00 | 0.00 | 89 | 1012.0 |
| 20260504022153 | 21 | 257 | 4.8 | 8.0 | 0.15 | 0.00 | 0.00 | 89 | 1012.0 |
| 20260504020252 | 22 | 257 | 4.8 | 8.0 | 0.13 | 0.00 | 0.00 | 89 | 1012.0 |
| 20260504020152 | 22 | 257 | 4.8 | 8.0 | 0.13 | 0.00 | 0.00 | 89 | 1012.0 |
| 20260504014252 | 22 | 257 | 4.8 | 8.0 | 0.10 | 0.00 | 0.00 | 89 | 1012.0 |
| 20260504014152 | 22 | 257 | 4.8 | 8.0 | 0.10 | 0.00 | 0.00 | 89 | 1012.0 |
| 20260504012251 | 21 | 280 | 4.8 | 6.4 | 0.10 | 0.00 | 0.00 | 89 | 1012.0 |
| 20260504012151 | 21 | 280 | 4.8 | 6.4 | 0.10 | 0.00 | 0.00 | 89 | 1012.0 |
| 20260504010251 | 22 | 280 | 4.8 | 6.4 | 0.10 | 0.00 | 0.00 | 89 | 1012.0 |
| 20260504010151 | 22 | 280 | 4.8 | 6.4 | 0.10 | 0.00 | 0.00 | 89 | 1012.0 |
| 20260504004250 | 22 | 280 | 4.8 | 6.4 | 0.03 | 0.00 | 0.00 | 89 | 1012.0 |
| 20260504004150 | 22 | 280 | 4.8 | 6.4 | 0.03 | 0.00 | 0.00 | 89 | 1012.0 |
| 20260504002250 | 23 | 280 | 4.8 | 6.4 | 0.00 | 0.00 | 0.00 | 89 | 1011.0 |
| 20260504002150 | 23 | 280 | 4.8 | 6.4 | 0.00 | 0.00 | 0.00 | 89 | 1011.0 |
| 20260504000249 | 23 | 280 | 4.8 | 6.4 | 0.03 | 0.00 | 0.00 | 89 | 1011.0 |
| 20260504000149 | 23 | 280 | 4.8 | 6.4 | 0.03 | 0.00 | 0.00 | 89 | 1011.0 |
| 20260503234249 | 24 | 280 | 4.8 | 6.4 | 0.03 | 0.00 | 0.00 | 89 | 1011.0 |
| 20260503234148 | 24 | 280 | 4.8 | 6.4 | 0.03 | 0.00 | 0.00 | 89 | 1011.0 |
| 20260503232248 | 22 | 296 | 1.6 | 4.8 | 0.03 | 0.00 | 0.00 | 87 | 1010.0 |
| 20260503232148 | 22 | 296 | 1.6 | 4.8 | 0.03 | 0.00 | 0.00 | 87 | 1010.0 |
| 20260503230247 | 22 | 296 | 1.6 | 4.8 | 0.00 | 0.00 | 0.00 | 87 | 1010.0 |
| 20260503230147 | 22 | 296 | 1.6 | 4.8 | 0.00 | 0.00 | 0.00 | 87 | 1010.0 |
| 20260503224247 | 23 | 296 | 3.2 | 4.8 | 0.00 | 0.00 | 0.00 | 87 | 1010.0 |
| 20260503224147 | 23 | 296 | 3.2 | 4.8 | 0.00 | 0.00 | 0.00 | 87 | 1010.0 |
| 20260503222246 | 22 | 342 | 1.6 | 6.4 | 0.00 | 0.00 | 0.00 | 84 | 1010.0 |
| 20260503222147 | 22 | 342 | 1.6 | 6.4 | 0.00 | 0.00 | 0.00 | 84 | 1010.0 |
| 20260503220246 | 23 | 342 | 1.6 | 6.4 | 0.00 | 0.00 | 0.00 | 84 | 1010.0 |
| 20260503220146 | 23 | 342 | 1.6 | 6.4 | 0.00 | 0.00 | 0.00 | 84 | 1010.0 |
| 20260503214245 | 23 | 342 | 3.2 | 6.4 | 0.00 | 0.00 | 0.00 | 84 | 1010.0 |
| 20260503214145 | 23 | 342 | 3.2 | 6.4 | 0.00 | 0.00 | 0.00 | 84 | 1010.0 |
| 20260503212245 | 22 | 4 | 8.0 | 12.9 | 0.03 | 0.00 | 0.00 | 80 | 1010.0 |
| 20260503212145 | 22 | 4 | 8.0 | 12.9 | 0.03 | 0.00 | 0.00 | 80 | 1010.0 |
| 20260503210244 | 23 | 4 | 8.0 | 12.9 | 0.03 | 0.00 | 0.00 | 80 | 1010.0 |
| 20260503210144 | 23 | 4 | 8.0 | 12.9 | 0.03 | 0.00 | 0.00 | 80 | 1010.0 |
| 20260503204244 | 23 | 4 | 8.0 | 12.9 | 0.00 | 0.00 | 0.00 | 80 | 1010.0 |
| 20260503204144 | 23 | 4 | 8.0 | 12.9 | 0.00 | 0.00 | 0.00 | 80 | 1010.0 |
| 20260503202243 | 24 | 4 | 8.0 | 12.9 | 0.00 | 0.00 | 0.00 | 80 | 1011.0 |
| 20260503202143 | 24 | 4 | 8.0 | 12.9 | 0.00 | 0.00 | 0.00 | 80 | 1011.0 |
| 20260503200243 | 25 | 4 | 8.0 | 12.9 | 0.00 | 0.00 | 0.00 | 80 | 1011.0 |
| 20260503200143 | 25 | 4 | 8.0 | 12.9 | 0.00 | 0.00 | 0.00 | 80 | 1011.0 |
| 20260503194242 | 25 | 4 | 8.0 | 12.9 | 0.00 | 0.00 | 0.00 | 80 | 1011.0 |
| 20260503194142 | 25 | 4 | 8.0 | 12.9 | 0.00 | 0.00 | 0.00 | 80 | 1011.0 |
| 20260503192241 | 25 | 359 | 8.0 | 11.3 | 0.03 | 0.00 | 0.00 | 76 | 1011.0 |
| 20260503192140 | 25 | 359 | 8.0 | 11.3 | 0.03 | 0.00 | 0.00 | 76 | 1011.0 |
| 20260503190240 | 26 | 359 | 8.0 | 11.3 | 0.00 | 0.00 | 0.00 | 76 | 1011.0 |
| 20260503190140 | 26 | 359 | 8.0 | 11.3 | 0.00 | 0.00 | 0.00 | 76 | 1011.0 |
| 20260503184239 | 26 | 359 | 9.7 | 11.3 | 0.03 | 0.00 | 0.00 | 76 | 1011.0 |
| 20260503184139 | 26 | 359 | 9.7 | 11.3 | 0.03 | 0.00 | 0.00 | 76 | 1011.0 |
| 20260503182239 | 25 | 349 | 8.0 | 12.9 | 0.00 | 0.00 | 0.00 | 76 | 1012.0 |
| 20260503182139 | 25 | 349 | 8.0 | 12.9 | 0.00 | 0.00 | 0.00 | 76 | 1012.0 |
| 20260503180238 | 26 | 349 | 8.0 | 12.9 | 0.00 | 0.00 | 0.00 | 76 | 1012.0 |
| 20260503180138 | 26 | 349 | 8.0 | 12.9 | 0.00 | 0.00 | 0.00 | 76 | 1012.0 |
| 20260503174238 | 26 | 349 | 8.0 | 12.9 | 0.00 | 0.00 | 0.00 | 76 | 1012.0 |
| 20260503174138 | 26 | 349 | 8.0 | 12.9 | 0.00 | 0.00 | 0.00 | 76 | 1012.0 |
| 20260503172237 | 24 | 2 | 8.0 | 8.0 | 0.00 | 0.00 | 0.00 | 73 | 1013.0 |
| 20260503172137 | 24 | 2 | 8.0 | 8.0 | 0.00 | 0.00 | 0.00 | 73 | 1013.0 |
| 20260503170236 | 25 | 2 | 8.0 | 8.0 | 0.00 | 0.00 | 0.00 | 73 | 1013.0 |
| 20260503170136 | 25 | 2 | 8.0 | 8.0 | 0.00 | 0.00 | 0.00 | 73 | 1013.0 |
| 20260503160135 | 26 | 2 | 8.0 | 8.0 | 0.00 | 0.00 | 0.00 | 73 | 1013.0 |
| 20260503150233 | 26 | 338 | 4.8 | 8.0 | 0.00 | 0.00 | 0.00 | 76 | 1013.0 |
| 20260503150133 | 26 | 338 | 4.8 | 8.0 | 0.00 | 0.00 | 0.00 | 76 | 1013.0 |
| 20260503140231 | 23 | 317 | 1.6 | 4.8 | 0.00 | 0.00 | 0.00 | 82 | 1013.0 |
| 20260503140131 | 23 | 317 | 1.6 | 4.8 | 0.00 | 0.00 | 0.00 | 82 | 1013.0 |